Time,TemperatureF,DewpointF,PressureIn,WindDirection,WindDirectionDegrees,WindSpeedMPH,WindSpeedGustMPH,Humidity,HourlyPrecipIn,Conditions,Clouds,dailyrainin,SoftwareType,DateUTC
2013-01-20 00:02:00,-4.5,-9.1,30.34,WNW,284,1.0,2.0,80,0.00,,,0.00,Wunderground v.1.15,2013-01-20 06:02:00,
2013-01-20 00:08:00,-4.4,-9.0,30.34,WSW,239,2.0,7.0,80,0.00,,,0.00,Wunderground v.1.15,2013-01-20 06:08:00,
2013-01-20 00:13:00,-4.5,-9.1,30.34,WSW,237,2.0,3.0,80,0.00,,,0.00,Wunderground v.1.15,2013-01-20 06:13:00,
2013-01-20 00:18:00,-4.6,-9.2,30.34,WSW,258,1.0,3.0,80,0.00,,,0.00,Wunderground v.1.15,2013-01-20 06:18:00,
2013-01-20 00:24:00,-4.7,-9.3,30.35,WSW,251,1.0,3.0,80,0.00,,,0.00,Wunderground v.1.15,2013-01-20 06:24:00,
2013-01-20 00:30:00,-4.8,-9.4,30.35,WSW,241,1.0,1.0,80,0.00,,,0.00,Wunderground v.1.15,2013-01-20 06:30:00,
2013-01-20 00:35:00,-5.0,-9.6,30.35,WSW,249,1.0,2.0,80,0.00,,,0.00,Wunderground v.1.15,2013-01-20 06:35:00,
2013-01-20 00:40:00,-5.2,-9.8,30.35,WSW,250,1.0,1.0,80,0.00,,,0.00,Wunderground v.1.15,2013-01-20 06:40:00,
2013-01-20 00:46:00,-5.4,-10.0,30.35,WSW,246,1.0,1.0,80,0.00,,,0.00,Wunderground v.1.15,2013-01-20 06:46:00,
2013-01-20 00:52:00,-5.6,-10.2,30.35,WSW,237,1.0,2.0,80,0.00,,,0.00,Wunderground v.1.15,2013-01-20 06:52:00,
2013-01-20 00:58:00,-5.7,-10.3,30.34,West,263,1.0,2.0,80,0.00,,,0.00,Wunderground v.1.15,2013-01-20 06:58:00,
2013-01-20 01:03:00,-5.9,-10.5,30.34,NW,314,1.0,2.0,80,0.00,,,0.00,Wunderground v.1.15,2013-01-20 07:03:00,
2013-01-20 01:09:00,-6.0,-10.6,30.34,SSW,213,1.0,2.0,80,0.00,,,0.00,Wunderground v.1.15,2013-01-20 07:09:00,
2013-01-20 01:15:00,-6.1,-10.4,30.34,NNW,339,1.0,3.0,81,0.00,,,0.00,Wunderground v.1.15,2013-01-20 07:15:00,
2013-01-20 01:21:00,-6.0,-10.6,30.34,West,268,2.0,2.0,80,0.00,,,0.00,Wunderground v.1.15,2013-01-20 07:21:00,
2013-01-20 01:26:00,-6.0,-10.6,30.35,West,272,2.0,6.0,80,0.00,,,0.00,Wunderground v.1.15,2013-01-20 07:26:00,
2013-01-20 01:32:00,-6.1,-10.7,30.35,WSW,239,2.0,3.0,80,0.00,,,0.00,Wunderground v.1.15,2013-01-20 07:32:00,
2013-01-20 01:38:00,-6.1,-10.7,30.35,WNW,294,2.0,3.0,80,0.00,,,0.00,Wunderground v.1.15,2013-01-20 07:38:00,
2013-01-20 01:43:00,-6.1,-10.7,30.35,WNW,283,2.0,6.0,80,0.00,,,0.00,Wunderground v.1.15,2013-01-20 07:43:00,
2013-01-20 01:49:00,-6.0,-10.6,30.35,SW,230,2.0,6.0,80,0.00,,,0.00,Wunderground v.1.15,2013-01-20 07:49:00,
2013-01-20 01:54:00,-6.1,-10.7,30.36,West,268,2.0,3.0,80,0.00,,,0.00,Wunderground v.1.15,2013-01-20 07:54:00,
2013-01-20 02:00:00,-6.1,-10.7,30.37,West,280,2.0,3.0,80,0.00,,,0.00,Wunderground v.1.15,2013-01-20 08:00:00,
2013-01-20 02:06:00,-6.1,-10.7,30.37,West,263,2.0,3.0,80,0.00,,,0.00,Wunderground v.1.15,2013-01-20 08:06:00,
2013-01-20 02:11:00,-6.1,-10.7,30.38,WNW,289,2.0,2.0,80,0.00,,,0.00,Wunderground v.1.15,2013-01-20 08:11:00,
2013-01-20 02:17:00,-6.1,-10.7,30.38,WSW,247,2.0,4.0,80,0.00,,,0.00,Wunderground v.1.15,2013-01-20 08:17:00,
2013-01-20 02:23:00,-6.2,-10.8,30.38,WSW,249,1.0,2.0,80,0.00,,,0.00,Wunderground v.1.15,2013-01-20 08:23:00,
2013-01-20 02:28:00,-6.1,-10.7,30.39,WSW,253,1.0,5.0,80,0.00,,,0.00,Wunderground v.1.15,2013-01-20 08:28:00,
2013-01-20 02:34:00,-6.2,-10.8,30.39,West,270,1.0,4.0,80,0.00,,,0.00,Wunderground v.1.15,2013-01-20 08:34:00,
2013-01-20 02:40:00,-6.2,-10.8,30.40,WSW,239,1.0,1.0,80,0.00,,,0.00,Wunderground v.1.15,2013-01-20 08:40:00,
2013-01-20 02:45:00,-6.2,-10.8,30.40,WSW,253,1.0,3.0,80,0.00,,,0.00,Wunderground v.1.15,2013-01-20 08:45:00,
2013-01-20 02:51:00,-6.2,-10.8,30.40,WSW,253,0.0,1.0,80,0.00,,,0.00,Wunderground v.1.15,2013-01-20 08:51:00,
2013-01-20 02:56:00,-6.3,-10.9,30.40,WSW,239,1.0,2.0,80,0.00,,,0.00,Wunderground v.1.15,2013-01-20 08:56:00,
2013-01-20 03:02:00,-6.4,-11.0,30.41,West,265,1.0,2.0,80,0.00,,,0.00,Wunderground v.1.15,2013-01-20 09:02:00,
2013-01-20 03:08:00,-6.5,-11.1,30.41,West,276,1.0,2.0,80,0.00,,,0.00,Wunderground v.1.15,2013-01-20 09:08:00,
2013-01-20 03:13:00,-6.6,-11.2,30.41,WSW,249,2.0,3.0,80,0.00,,,0.00,Wunderground v.1.15,2013-01-20 09:13:00,
2013-01-20 03:19:00,-6.6,-11.2,30.41,West,268,2.0,3.0,80,0.00,,,0.00,Wunderground v.1.15,2013-01-20 09:19:00,
2013-01-20 03:25:00,-6.7,-11.3,30.41,SW,223,2.0,4.0,80,0.00,,,0.00,Wunderground v.1.15,2013-01-20 09:25:00,
2013-01-20 03:31:00,-6.8,-11.4,30.41,WSW,244,2.0,2.0,80,0.00,,,0.00,Wunderground v.1.15,2013-01-20 09:31:00,
2013-01-20 03:36:00,-6.8,-11.4,30.41,West,266,2.0,4.0,80,0.00,,,0.00,Wunderground v.1.15,2013-01-20 09:36:00,
2013-01-20 03:42:00,-6.9,-11.4,30.41,WSW,252,1.0,3.0,80,0.00,,,0.00,Wunderground v.1.15,2013-01-20 09:42:00,
2013-01-20 03:48:00,-7.1,-11.6,30.41,West,279,1.0,3.0,80,0.00,,,0.00,Wunderground v.1.15,2013-01-20 09:48:00,
2013-01-20 03:53:00,-7.2,-11.7,30.41,West,271,0.0,1.0,80,0.00,,,0.00,Wunderground v.1.15,2013-01-20 09:53:00,
2013-01-20 03:59:00,-7.4,-11.9,30.41,WSW,240,1.0,2.0,80,0.00,,,0.00,Wunderground v.1.15,2013-01-20 09:59:00,
2013-01-20 04:05:00,-7.6,-11.9,30.41,SSW,208,0.0,1.0,81,0.00,,,0.00,Wunderground v.1.15,2013-01-20 10:05:00,
2013-01-20 04:10:00,-7.8,-12.1,30.42,WSW,248,0.0,0.0,81,0.00,,,0.00,Wunderground v.1.15,2013-01-20 10:10:00,
2013-01-20 04:16:00,-8.0,-12.3,30.42,West,259,0.0,0.0,81,0.00,,,0.00,Wunderground v.1.15,2013-01-20 10:16:00,
2013-01-20 04:22:00,-8.3,-12.6,30.42,WSW,253,0.0,0.0,81,0.00,,,0.00,Wunderground v.1.15,2013-01-20 10:22:00,
2013-01-20 04:27:00,-8.6,-12.6,30.42,West,260,0.0,0.0,82,0.00,,,0.00,Wunderground v.1.15,2013-01-20 10:27:00,
2013-01-20 04:33:00,-8.8,-12.8,30.41,WSW,254,0.0,1.0,82,0.00,,,0.00,Wunderground v.1.15,2013-01-20 10:33:00,
2013-01-20 04:38:00,-8.8,-12.6,30.42,WSW,238,0.0,1.0,83,0.00,,,0.00,Wunderground v.1.15,2013-01-20 10:38:00,
2013-01-20 04:44:00,-9.0,-12.8,30.42,WSW,247,0.0,1.0,83,0.00,,,0.00,Wunderground v.1.15,2013-01-20 10:44:00,
2013-01-20 04:50:00,-9.2,-13.0,30.42,WSW,247,0.0,0.0,83,0.00,,,0.00,Wunderground v.1.15,2013-01-20 10:50:00,
2013-01-20 04:55:00,-9.4,-13.2,30.42,West,268,0.0,0.0,83,0.00,,,0.00,Wunderground v.1.15,2013-01-20 10:55:00,
2013-01-20 05:00:00,-9.7,-13.5,30.42,West,260,0.0,0.0,83,0.00,,,0.00,Wunderground v.1.15,2013-01-20 11:00:00,
2013-01-20 05:06:00,-10.1,-13.8,30.42,West,260,0.0,0.0,83,0.00,,,0.00,Wunderground v.1.15,2013-01-20 11:06:00,
2013-01-20 05:12:00,-10.5,-14.2,30.42,West,260,0.0,0.0,83,0.00,,,0.00,Wunderground v.1.15,2013-01-20 11:12:00,
2013-01-20 05:18:00,-10.9,-14.6,30.41,West,259,0.0,0.0,83,0.00,,,0.00,Wunderground v.1.15,2013-01-20 11:18:00,
2013-01-20 05:23:00,-11.1,-14.6,30.41,West,260,0.0,0.0,84,0.00,,,0.00,Wunderground v.1.15,2013-01-20 11:23:00,
2013-01-20 05:29:00,-11.1,-14.6,30.42,West,259,0.0,0.0,84,0.00,,,0.00,Wunderground v.1.15,2013-01-20 11:29:00,
2013-01-20 05:34:00,-11.3,-14.8,30.42,West,260,0.0,0.0,84,0.00,,,0.00,Wunderground v.1.15,2013-01-20 11:34:00,
2013-01-20 05:40:00,-11.8,-15.5,30.42,West,259,0.0,0.0,83,0.00,,,0.00,Wunderground v.1.15,2013-01-20 11:40:00,
2013-01-20 05:45:00,-11.9,-15.6,30.42,West,260,0.0,0.0,83,0.00,,,0.00,Wunderground v.1.15,2013-01-20 11:45:00,
2013-01-20 05:51:00,-12.2,-15.9,30.42,West,260,0.0,0.0,83,0.00,,,0.00,Wunderground v.1.15,2013-01-20 11:51:00,
2013-01-20 05:57:00,-12.7,-16.4,30.42,West,259,0.0,0.0,83,0.00,,,0.00,Wunderground v.1.15,2013-01-20 11:57:00,
2013-01-20 06:02:00,-13.0,-16.7,30.41,West,259,0.0,0.0,83,0.00,,,0.00,Wunderground v.1.15,2013-01-20 12:02:00,
2013-01-20 06:07:00,-13.2,-16.9,30.42,West,259,0.0,0.0,83,0.00,,,0.00,Wunderground v.1.15,2013-01-20 12:07:00,
2013-01-20 06:12:00,-13.5,-17.2,30.41,West,259,0.0,0.0,83,0.00,,,0.00,Wunderground v.1.15,2013-01-20 12:12:00,
2013-01-20 06:18:00,-13.4,-16.8,30.41,West,259,0.0,0.0,84,0.00,,,0.00,Wunderground v.1.15,2013-01-20 12:18:00,
2013-01-20 06:23:00,-13.6,-17.3,30.41,West,259,0.0,0.0,83,0.00,,,0.00,Wunderground v.1.15,2013-01-20 12:23:00,
2013-01-20 06:29:00,-14.1,-18.0,30.41,West,259,0.0,0.0,82,0.00,,,0.00,Wunderground v.1.15,2013-01-20 12:29:00,
2013-01-20 06:35:00,-14.3,-17.7,30.41,West,260,0.0,0.0,84,0.00,,,0.00,Wunderground v.1.15,2013-01-20 12:35:00,
2013-01-20 06:40:00,-14.3,-17.7,30.41,West,259,0.0,0.0,84,0.00,,,0.00,Wunderground v.1.15,2013-01-20 12:40:00,
2013-01-20 06:45:00,-14.3,-17.7,30.42,West,260,0.0,0.0,84,0.00,,,0.00,Wunderground v.1.15,2013-01-20 12:45:00,
2013-01-20 06:50:00,-14.5,-18.2,30.42,West,259,0.0,0.0,83,0.00,,,0.00,Wunderground v.1.15,2013-01-20 12:50:00,
2013-01-20 06:56:00,-14.9,-18.6,30.42,West,259,0.0,0.0,83,0.00,,,0.00,Wunderground v.1.15,2013-01-20 12:56:00,
2013-01-20 07:01:00,-15.3,-19.2,30.42,West,259,0.0,0.0,82,0.00,,,0.00,Wunderground v.1.15,2013-01-20 13:01:00,
2013-01-20 07:07:00,-15.7,-19.3,30.42,West,259,0.0,0.0,83,0.00,,,0.00,Wunderground v.1.15,2013-01-20 13:07:00,
2013-01-20 07:12:00,-15.9,-19.5,30.42,West,259,0.0,0.0,83,0.00,,,0.00,Wunderground v.1.15,2013-01-20 13:12:00,
2013-01-20 07:18:00,-16.2,-19.8,30.42,West,259,0.0,0.0,83,0.00,,,0.00,Wunderground v.1.15,2013-01-20 13:18:00,
2013-01-20 07:23:00,-16.4,-20.0,30.42,West,259,0.0,0.0,83,0.00,,,0.00,Wunderground v.1.15,2013-01-20 13:23:00,
2013-01-20 07:28:00,-16.4,-20.0,30.42,West,259,0.0,0.0,83,0.00,,,0.00,Wunderground v.1.15,2013-01-20 13:28:00,
2013-01-20 07:34:00,-16.2,-19.6,30.42,West,259,0.0,0.0,84,0.00,,,0.00,Wunderground v.1.15,2013-01-20 13:34:00,
2013-01-20 07:40:00,-16.0,-19.4,30.42,West,260,0.0,0.0,84,0.00,,,0.00,Wunderground v.1.15,2013-01-20 13:40:00,
2013-01-20 07:45:00,-15.7,-18.9,30.43,West,260,0.0,0.0,85,0.00,,,0.00,Wunderground v.1.15,2013-01-20 13:45:00,
2013-01-20 07:50:00,-15.2,-18.4,30.43,West,260,0.0,0.0,85,0.00,,,0.00,Wunderground v.1.15,2013-01-20 13:50:00,
2013-01-20 07:56:00,-14.6,-17.8,30.44,West,259,0.0,0.0,85,0.00,,,0.00,Wunderground v.1.15,2013-01-20 13:56:00,
2013-01-20 08:02:00,-13.9,-17.1,30.45,West,260,0.0,0.0,85,0.00,,,0.00,Wunderground v.1.15,2013-01-20 14:02:00,
2013-01-20 08:08:00,-13.3,-16.5,30.45,SW,234,0.0,0.0,85,0.00,,,0.00,Wunderground v.1.15,2013-01-20 14:08:00,
2013-01-20 08:14:00,-12.7,-15.9,30.45,WSW,243,0.0,0.0,85,0.00,,,0.00,Wunderground v.1.15,2013-01-20 14:14:00,
2013-01-20 08:20:00,-12.0,-15.2,30.45,WSW,239,0.0,0.0,85,0.00,,,0.00,Wunderground v.1.15,2013-01-20 14:20:00,
2013-01-20 08:26:00,-11.4,-14.6,30.46,SW,218,0.0,2.0,85,0.00,,,0.00,Wunderground v.1.15,2013-01-20 14:26:00,
2013-01-20 08:32:00,-10.8,-14.1,30.46,SW,234,1.0,3.0,85,0.00,,,0.00,Wunderground v.1.15,2013-01-20 14:32:00,
2013-01-20 08:38:00,-10.3,-13.6,30.46,WSW,246,1.0,3.0,85,0.00,,,0.00,Wunderground v.1.15,2013-01-20 14:38:00,
2013-01-20 08:43:00,-9.9,-13.2,30.46,WSW,240,0.0,1.0,85,0.00,,,0.00,Wunderground v.1.15,2013-01-20 14:43:00,
2013-01-20 08:49:00,-9.7,-13.2,30.47,WSW,246,0.0,2.0,84,0.00,,,0.00,Wunderground v.1.15,2013-01-20 14:49:00,
2013-01-20 08:55:00,-9.4,-12.9,30.47,WSW,251,0.0,3.0,84,0.00,,,0.00,Wunderground v.1.15,2013-01-20 14:55:00,
2013-01-20 09:00:00,-9.2,-12.7,30.47,WSW,257,0.0,0.0,84,0.00,,,0.00,Wunderground v.1.15,2013-01-20 15:00:00,
2013-01-20 09:06:00,-8.9,-12.4,30.47,West,260,0.0,1.0,84,0.00,,,0.00,Wunderground v.1.15,2013-01-20 15:06:00,
2013-01-20 09:12:00,-8.5,-12.0,30.48,SW,235,0.0,0.0,84,0.00,,,0.00,Wunderground v.1.15,2013-01-20 15:12:00,
2013-01-20 09:18:00,-8.0,-11.5,30.48,WSW,237,0.0,1.0,84,0.00,,,0.00,Wunderground v.1.15,2013-01-20 15:18:00,
2013-01-20 09:24:00,-7.6,-11.1,30.48,WSW,250,1.0,4.0,84,0.00,,,0.00,Wunderground v.1.15,2013-01-20 15:24:00,
2013-01-20 09:30:00,-7.2,-11.0,30.48,West,268,1.0,3.0,83,0.00,,,0.00,Wunderground v.1.15,2013-01-20 15:30:00,
2013-01-20 09:35:00,-6.9,-10.9,30.48,SW,215,1.0,3.0,82,0.00,,,0.00,Wunderground v.1.15,2013-01-20 15:35:00,
2013-01-20 09:41:00,-6.6,-10.7,30.48,WNW,282,1.0,1.0,82,0.00,,,0.00,Wunderground v.1.15,2013-01-20 15:41:00,
2013-01-20 09:47:00,-6.2,-10.5,30.48,WSW,240,1.0,3.0,81,0.00,,,0.00,Wunderground v.1.15,2013-01-20 15:47:00,
2013-01-20 09:52:00,-6.0,-10.6,30.48,NW,304,2.0,2.0,80,0.00,,,0.00,Wunderground v.1.15,2013-01-20 15:52:00,
2013-01-20 09:58:00,-5.8,-10.4,30.47,WSW,239,2.0,3.0,80,0.00,,,0.00,Wunderground v.1.15,2013-01-20 15:58:00,
2013-01-20 10:04:00,-5.5,-10.1,30.48,West,278,2.0,5.0,80,0.00,,,0.00,Wunderground v.1.15,2013-01-20 16:04:00,
2013-01-20 10:09:00,-5.1,-9.7,30.48,WSW,250,1.0,5.0,80,0.00,,,0.00,Wunderground v.1.15,2013-01-20 16:09:00,
2013-01-20 10:15:00,-4.7,-9.3,30.49,WSW,251,1.0,6.0,80,0.00,,,0.00,Wunderground v.1.15,2013-01-20 16:15:00,
2013-01-20 10:20:00,-4.2,-9.1,30.49,West,259,1.0,1.0,79,0.00,,,0.00,Wunderground v.1.15,2013-01-20 16:20:00,
2013-01-20 10:26:00,-3.9,-9.0,30.49,WNW,302,1.0,5.0,78,0.00,,,0.00,Wunderground v.1.15,2013-01-20 16:26:00,
2013-01-20 10:32:00,-3.5,-8.6,30.49,West,259,1.0,1.0,78,0.00,,,0.00,Wunderground v.1.15,2013-01-20 16:32:00,
2013-01-20 10:38:00,-3.0,-9.0,30.49,West,260,1.0,6.0,75,0.00,,,0.00,Wunderground v.1.15,2013-01-20 16:38:00,
2013-01-20 10:43:00,-2.8,-8.5,30.49,SSW,209,2.0,2.0,76,0.00,,,0.00,Wunderground v.1.15,2013-01-20 16:43:00,
2013-01-20 10:49:00,-2.9,-8.9,30.49,NW,305,2.0,5.0,75,0.00,,,0.00,Wunderground v.1.15,2013-01-20 16:49:00,
2013-01-20 10:54:00,-2.9,-8.9,30.48,West,265,2.0,3.0,75,0.00,,,0.00,Wunderground v.1.15,2013-01-20 16:54:00,
2013-01-20 11:00:00,-2.4,-8.4,30.48,WSW,237,2.0,2.0,75,0.00,,,0.00,Wunderground v.1.15,2013-01-20 17:00:00,
2013-01-20 11:06:00,-2.0,-8.0,30.47,West,263,2.0,2.0,75,0.00,,,0.00,Wunderground v.1.15,2013-01-20 17:06:00,
2013-01-20 11:11:00,-1.5,-7.8,30.48,SSW,208,1.0,4.0,74,0.00,,,0.00,Wunderground v.1.15,2013-01-20 17:11:00,
2013-01-20 11:17:00,-1.2,-7.5,30.48,WSW,255,2.0,5.0,74,0.00,,,0.00,Wunderground v.1.15,2013-01-20 17:17:00,
2013-01-20 11:23:00,-1.0,-7.6,30.47,SSW,206,2.0,2.0,73,0.00,,,0.00,Wunderground v.1.15,2013-01-20 17:23:00,
2013-01-20 11:28:00,-0.8,-7.1,30.47,SSW,201,2.0,5.0,74,0.00,,,0.00,Wunderground v.1.15,2013-01-20 17:28:00,
2013-01-20 11:34:00,-0.4,-7.0,30.47,West,265,1.0,3.0,73,0.00,,,0.00,Wunderground v.1.15,2013-01-20 17:34:00,
2013-01-20 11:40:00,-0.3,-6.9,30.47,West,260,2.0,2.0,73,0.00,,,0.00,Wunderground v.1.15,2013-01-20 17:40:00,
2013-01-20 11:45:00,-0.3,-6.9,30.47,WSW,238,3.0,5.0,73,0.00,,,0.00,Wunderground v.1.15,2013-01-20 17:45:00,
2013-01-20 11:51:00,-0.3,-6.6,30.47,SW,232,3.0,6.0,74,0.00,,,0.00,Wunderground v.1.15,2013-01-20 17:51:00,
2013-01-20 11:56:00,0.0,-6.3,30.46,SW,224,2.0,6.0,74,0.00,,,0.00,Wunderground v.1.15,2013-01-20 17:56:00,
2013-01-20 12:02:00,0.4,-5.7,30.46,SSW,209,1.0,2.0,75,0.00,,,0.00,Wunderground v.1.15,2013-01-20 18:02:00,
2013-01-20 12:08:00,0.5,-5.8,30.46,West,269,2.0,3.0,74,0.00,,,0.00,Wunderground v.1.15,2013-01-20 18:08:00,
2013-01-20 12:13:00,0.7,-5.9,30.45,West,270,2.0,2.0,73,0.00,,,0.00,Wunderground v.1.15,2013-01-20 18:13:00,
2013-01-20 12:19:00,0.8,-5.8,30.45,WSW,247,2.0,6.0,73,0.00,,,0.00,Wunderground v.1.15,2013-01-20 18:19:00,
2013-01-20 12:25:00,1.1,-5.5,30.45,WSW,254,2.0,3.0,73,0.00,,,0.00,Wunderground v.1.15,2013-01-20 18:25:00,
2013-01-20 12:30:00,1.4,-5.3,30.45,WSW,238,2.0,2.0,73,0.00,,,0.00,Wunderground v.1.15,2013-01-20 18:30:00,
2013-01-20 12:36:00,1.7,-5.2,30.45,West,273,2.0,6.0,72,0.00,,,0.00,Wunderground v.1.15,2013-01-20 18:36:00,
2013-01-20 12:42:00,1.7,-5.2,30.45,West,263,3.0,4.0,72,0.00,,,0.00,Wunderground v.1.15,2013-01-20 18:42:00,
2013-01-20 12:48:00,1.8,-5.2,30.45,West,273,2.0,4.0,72,0.00,,,0.00,Wunderground v.1.15,2013-01-20 18:48:00,
2013-01-20 12:53:00,1.9,-5.1,30.45,WSW,255,2.0,3.0,72,0.00,,,0.00,Wunderground v.1.15,2013-01-20 18:53:00,
2013-01-20 12:59:00,1.8,-5.4,30.44,WSW,255,3.0,6.0,71,0.00,,,0.00,Wunderground v.1.15,2013-01-20 18:59:00,
2013-01-20 13:05:00,2.1,-5.2,30.44,SSW,206,3.0,6.0,71,0.00,,,0.00,Wunderground v.1.15,2013-01-20 19:05:00,
2013-01-20 13:10:00,2.3,-5.3,30.44,West,270,3.0,3.0,70,0.00,,,0.00,Wunderground v.1.15,2013-01-20 19:10:00,
2013-01-20 13:16:00,2.7,-5.2,30.44,West,281,3.0,4.0,69,0.00,,,0.00,Wunderground v.1.15,2013-01-20 19:16:00,
2013-01-20 13:22:00,3.2,-4.4,30.44,SSW,208,2.0,3.0,70,0.00,,,0.00,Wunderground v.1.15,2013-01-20 19:22:00,
2013-01-20 13:27:00,3.1,-5.1,30.43,NW,313,2.0,4.0,68,0.00,,,0.00,Wunderground v.1.15,2013-01-20 19:27:00,
2013-01-20 13:33:00,2.8,-5.7,30.43,SW,228,3.0,4.0,67,0.00,,,0.00,Wunderground v.1.15,2013-01-20 19:33:00,
2013-01-20 13:39:00,2.8,-5.4,30.43,SW,232,3.0,4.0,68,0.00,,,0.00,Wunderground v.1.15,2013-01-20 19:39:00,
2013-01-20 13:44:00,3.1,-4.8,30.43,West,275,2.0,3.0,69,0.00,,,0.00,Wunderground v.1.15,2013-01-20 19:44:00,
2013-01-20 13:50:00,3.3,-4.6,30.42,WSW,253,2.0,2.0,69,0.00,,,0.00,Wunderground v.1.15,2013-01-20 19:50:00,
2013-01-20 13:56:00,3.8,-4.1,30.42,SSW,201,2.0,4.0,69,0.00,,,0.00,Wunderground v.1.15,2013-01-20 19:56:00,
2013-01-20 14:02:00,4.4,-4.1,30.42,West,273,2.0,4.0,67,0.00,,,0.00,Wunderground v.1.15,2013-01-20 20:02:00,
2013-01-20 14:08:00,4.0,-3.9,30.42,SW,225,2.0,4.0,69,0.00,,,0.00,Wunderground v.1.15,2013-01-20 20:08:00,
2013-01-20 14:13:00,4.1,-4.1,30.42,WSW,242,2.0,3.0,68,0.00,,,0.00,Wunderground v.1.15,2013-01-20 20:13:00,
2013-01-20 14:19:00,3.6,-4.9,30.42,WSW,240,2.0,3.0,67,0.00,,,0.00,Wunderground v.1.15,2013-01-20 20:19:00,
2013-01-20 14:25:00,3.3,-4.6,30.42,SW,223,3.0,5.0,69,0.00,,,0.00,Wunderground v.1.15,2013-01-20 20:25:00,
2013-01-20 14:30:00,3.2,-4.7,30.42,West,265,3.0,3.0,69,0.00,,,0.00,Wunderground v.1.15,2013-01-20 20:30:00,
2013-01-20 14:36:00,3.0,-4.3,30.42,SW,230,3.0,5.0,71,0.00,,,0.00,Wunderground v.1.15,2013-01-20 20:36:00,
2013-01-20 14:42:00,3.0,-4.3,30.42,SW,227,3.0,4.0,71,0.00,,,0.00,Wunderground v.1.15,2013-01-20 20:42:00,
2013-01-20 14:47:00,3.0,-4.3,30.42,WSW,254,3.0,5.0,71,0.00,,,0.00,Wunderground v.1.15,2013-01-20 20:47:00,
2013-01-20 14:53:00,3.1,-4.2,30.42,WSW,240,2.0,3.0,71,0.00,,,0.00,Wunderground v.1.15,2013-01-20 20:53:00,
2013-01-20 14:59:00,3.0,-4.3,30.41,SSW,213,3.0,7.0,71,0.00,,,0.00,Wunderground v.1.15,2013-01-20 20:59:00,
2013-01-20 15:04:00,3.0,-4.0,30.41,West,264,3.0,3.0,72,0.00,,,0.00,Wunderground v.1.15,2013-01-20 21:04:00,
2013-01-20 15:10:00,3.1,-3.9,30.41,WSW,249,2.0,3.0,72,0.00,,,0.00,Wunderground v.1.15,2013-01-20 21:10:00,
2013-01-20 15:16:00,2.9,-4.7,30.41,NW,307,3.0,4.0,70,0.00,,,0.00,Wunderground v.1.15,2013-01-20 21:16:00,
2013-01-20 15:22:00,3.0,-4.3,30.41,West,262,3.0,5.0,71,0.00,,,0.00,Wunderground v.1.15,2013-01-20 21:22:00,
2013-01-20 15:28:00,3.2,-3.8,30.41,West,265,3.0,9.0,72,0.00,,,0.00,Wunderground v.1.15,2013-01-20 21:28:00,
2013-01-20 15:33:00,3.2,-3.8,30.41,WSW,256,3.0,5.0,72,0.00,,,0.00,Wunderground v.1.15,2013-01-20 21:33:00,
2013-01-20 15:39:00,3.2,-2.9,30.41,West,269,3.0,8.0,75,0.00,,,0.00,Wunderground v.1.15,2013-01-20 21:39:00,
2013-01-20 15:45:00,2.7,-4.6,30.40,WSW,238,3.0,6.0,71,0.00,,,0.00,Wunderground v.1.15,2013-01-20 21:45:00,
2013-01-20 15:50:00,2.3,-5.3,30.41,WSW,253,3.0,3.0,70,0.00,,,0.00,Wunderground v.1.15,2013-01-20 21:50:00,
2013-01-20 15:56:00,2.0,-5.2,30.41,WNW,287,2.0,3.0,71,0.00,,,0.00,Wunderground v.1.15,2013-01-20 21:56:00,
2013-01-20 16:02:00,1.8,-5.4,30.41,WSW,240,1.0,2.0,71,0.00,,,0.00,Wunderground v.1.15,2013-01-20 22:02:00,
2013-01-20 16:07:00,1.5,-5.7,30.41,SSW,209,1.0,4.0,71,0.00,,,0.00,Wunderground v.1.15,2013-01-20 22:07:00,
2013-01-20 16:13:00,1.3,-6.2,30.40,West,275,2.0,5.0,70,0.00,,,0.00,Wunderground v.1.15,2013-01-20 22:13:00,
2013-01-20 16:19:00,1.1,-6.7,30.40,WSW,237,3.0,9.0,69,0.00,,,0.00,Wunderground v.1.15,2013-01-20 22:19:00,
2013-01-20 16:24:00,1.1,-6.7,30.40,WSW,249,3.0,11.0,69,0.00,,,0.00,Wunderground v.1.15,2013-01-20 22:24:00,
2013-01-20 16:30:00,1.0,-6.8,30.41,West,265,3.0,3.0,69,0.00,,,0.00,Wunderground v.1.15,2013-01-20 22:30:00,
2013-01-20 16:36:00,1.1,-6.7,30.40,SSW,205,2.0,4.0,69,0.00,,,0.00,Wunderground v.1.15,2013-01-20 22:36:00,
2013-01-20 16:42:00,1.0,-6.8,30.41,WSW,238,3.0,3.0,69,0.00,,,0.00,Wunderground v.1.15,2013-01-20 22:42:00,
2013-01-20 16:47:00,0.7,-7.1,30.41,SW,220,3.0,3.0,69,0.00,,,0.00,Wunderground v.1.15,2013-01-20 22:47:00,
2013-01-20 16:53:00,0.5,-7.3,30.41,WSW,238,2.0,7.0,69,0.00,,,0.00,Wunderground v.1.15,2013-01-20 22:53:00,
2013-01-20 16:59:00,0.2,-7.9,30.41,SW,236,2.0,7.0,68,0.00,,,0.00,Wunderground v.1.15,2013-01-20 22:59:00,
2013-01-20 17:04:00,-0.2,-8.3,30.41,SW,221,1.0,3.0,68,0.00,,,0.00,Wunderground v.1.15,2013-01-20 23:04:00,
2013-01-20 17:10:00,-0.6,-8.6,30.41,WSW,244,2.0,2.0,68,0.00,,,0.00,Wunderground v.1.15,2013-01-20 23:10:00,
2013-01-20 17:16:00,-0.9,-8.9,30.41,SW,234,2.0,8.0,68,0.00,,,0.00,Wunderground v.1.15,2013-01-20 23:16:00,
2013-01-20 17:21:00,-1.2,-8.6,30.41,WSW,240,2.0,2.0,70,0.00,,,0.00,Wunderground v.1.15,2013-01-20 23:21:00,
2013-01-20 17:27:00,-1.4,-8.8,30.41,SW,236,2.0,4.0,70,0.00,,,0.00,Wunderground v.1.15,2013-01-20 23:27:00,
2013-01-20 17:33:00,-1.7,-9.1,30.41,SW,223,2.0,4.0,70,0.00,,,0.00,Wunderground v.1.15,2013-01-20 23:33:00,
2013-01-20 17:38:00,-2.0,-9.1,30.41,SW,236,2.0,4.0,71,0.00,,,0.00,Wunderground v.1.15,2013-01-20 23:38:00,
2013-01-20 17:44:00,-2.1,-9.2,30.40,SW,227,2.0,5.0,71,0.00,,,0.00,Wunderground v.1.15,2013-01-20 23:44:00,
2013-01-20 17:50:00,-2.3,-9.4,30.40,WSW,248,2.0,2.0,71,0.00,,,0.00,Wunderground v.1.15,2013-01-20 23:50:00,
2013-01-20 17:56:00,-2.4,-9.2,30.41,SW,223,2.0,3.0,72,0.00,,,0.00,Wunderground v.1.15,2013-01-20 23:56:00,
2013-01-20 18:02:00,-2.6,-9.4,30.41,WSW,254,2.0,4.0,72,0.00,,,0.00,Wunderground v.1.15,2013-01-21 00:02:00,
2013-01-20 18:08:00,-2.6,-9.4,30.41,WSW,245,2.0,6.0,72,0.00,,,0.00,Wunderground v.1.15,2013-01-21 00:08:00,
2013-01-20 18:13:00,-2.8,-9.6,30.41,WSW,258,3.0,5.0,72,0.00,,,0.00,Wunderground v.1.15,2013-01-21 00:13:00,
2013-01-20 18:18:00,-2.9,-9.4,30.41,WSW,245,2.0,5.0,73,0.00,,,0.00,Wunderground v.1.15,2013-01-21 00:18:00,
2013-01-20 18:23:00,-3.0,-9.5,30.41,WNW,284,2.0,6.0,73,0.00,,,0.00,Wunderground v.1.15,2013-01-21 00:23:00,
2013-01-20 18:29:00,-3.2,-9.4,30.41,WSW,253,2.0,7.0,74,0.00,,,0.00,Wunderground v.1.15,2013-01-21 00:29:00,
2013-01-20 18:35:00,-3.4,-9.6,30.41,WSW,244,2.0,4.0,74,0.00,,,0.00,Wunderground v.1.15,2013-01-21 00:35:00,
2013-01-20 18:41:00,-3.5,-10.0,30.41,West,271,3.0,6.0,73,0.00,,,0.00,Wunderground v.1.15,2013-01-21 00:41:00,
2013-01-20 18:47:00,-3.6,-10.4,30.41,West,266,3.0,6.0,72,0.00,,,0.00,Wunderground v.1.15,2013-01-21 00:47:00,
2013-01-20 18:52:00,-3.7,-10.7,30.41,WSW,248,3.0,5.0,71,0.00,,,0.00,Wunderground v.1.15,2013-01-21 00:52:00,
2013-01-20 18:58:00,-3.9,-10.9,30.41,WSW,253,4.0,10.0,71,0.00,,,0.00,Wunderground v.1.15,2013-01-21 00:58:00,
2013-01-20 19:04:00,-4.1,-11.1,30.41,WSW,244,3.0,4.0,71,0.00,,,0.00,Wunderground v.1.15,2013-01-21 01:04:00,
2013-01-20 19:10:00,-4.3,-11.3,30.41,SW,219,3.0,6.0,71,0.00,,,0.00,Wunderground v.1.15,2013-01-21 01:10:00,
2013-01-20 19:16:00,-4.3,-11.3,30.41,WSW,256,4.0,6.0,71,0.00,,,0.00,Wunderground v.1.15,2013-01-21 01:16:00,
2013-01-20 19:21:00,-4.5,-11.5,30.41,West,277,4.0,6.0,71,0.00,,,0.00,Wunderground v.1.15,2013-01-21 01:21:00,
2013-01-20 19:27:00,-4.7,-11.7,30.42,WSW,252,3.0,6.0,71,0.00,,,0.00,Wunderground v.1.15,2013-01-21 01:27:00,
2013-01-20 19:33:00,-4.8,-11.8,30.42,WSW,251,2.0,4.0,71,0.00,,,0.00,Wunderground v.1.15,2013-01-21 01:33:00,
2013-01-20 19:39:00,-5.0,-12.0,30.41,WSW,242,3.0,10.0,71,0.00,,,0.00,Wunderground v.1.15,2013-01-21 01:39:00,
2013-01-20 19:44:00,-5.1,-12.1,30.41,West,260,4.0,10.0,71,0.00,,,0.00,Wunderground v.1.15,2013-01-21 01:44:00,
2013-01-20 19:49:00,-5.2,-11.9,30.41,WSW,247,3.0,10.0,72,0.00,,,0.00,Wunderground v.1.15,2013-01-21 01:49:00,
2013-01-20 19:55:00,-5.4,-12.1,30.41,WSW,256,2.0,4.0,72,0.00,,,0.00,Wunderground v.1.15,2013-01-21 01:55:00,
2013-01-20 20:00:00,-5.5,-12.2,30.42,SW,226,2.0,2.0,72,0.00,,,0.00,Wunderground v.1.15,2013-01-21 02:00:00,
2013-01-20 20:06:00,-5.7,-12.1,30.41,WSW,237,2.0,5.0,73,0.00,,,0.00,Wunderground v.1.15,2013-01-21 02:06:00,
2013-01-20 20:11:00,-5.9,-12.0,30.41,West,262,2.0,2.0,74,0.00,,,0.00,Wunderground v.1.15,2013-01-21 02:11:00,
2013-01-20 20:17:00,-6.1,-12.2,30.41,SSW,210,2.0,2.0,74,0.00,,,0.00,Wunderground v.1.15,2013-01-21 02:17:00,
2013-01-20 20:22:00,-6.2,-12.1,30.41,SW,235,2.0,3.0,75,0.00,,,0.00,Wunderground v.1.15,2013-01-21 02:22:00,
2013-01-20 20:28:00,-6.3,-12.2,30.41,WSW,243,2.0,5.0,75,0.00,,,0.00,Wunderground v.1.15,2013-01-21 02:28:00,
2013-01-20 20:33:00,-6.3,-12.2,30.41,West,267,3.0,6.0,75,0.00,,,0.00,Wunderground v.1.15,2013-01-21 02:33:00,
2013-01-20 20:39:00,-6.4,-12.3,30.41,West,260,3.0,10.0,75,0.00,,,0.00,Wunderground v.1.15,2013-01-21 02:39:00,
2013-01-20 20:45:00,-6.5,-12.4,30.41,West,263,3.0,4.0,75,0.00,,,0.00,Wunderground v.1.15,2013-01-21 02:45:00,
2013-01-20 20:50:00,-6.7,-12.5,30.41,WSW,241,2.0,2.0,75,0.00,,,0.00,Wunderground v.1.15,2013-01-21 02:50:00,
2013-01-20 20:55:00,-6.8,-12.6,30.41,SW,235,3.0,3.0,75,0.00,,,0.00,Wunderground v.1.15,2013-01-21 02:55:00,
2013-01-20 21:00:00,-6.9,-12.7,30.41,WSW,245,2.0,2.0,75,0.00,,,0.00,Wunderground v.1.15,2013-01-21 03:00:00,
2013-01-20 21:06:00,-7.2,-13.0,30.41,WSW,252,1.0,4.0,75,0.00,,,0.00,Wunderground v.1.15,2013-01-21 03:06:00,
2013-01-20 21:11:00,-7.3,-13.1,30.41,WSW,250,1.0,2.0,75,0.00,,,0.00,Wunderground v.1.15,2013-01-21 03:11:00,
2013-01-20 21:17:00,-7.4,-13.0,30.41,WNW,282,1.0,6.0,76,0.00,,,0.00,Wunderground v.1.15,2013-01-21 03:17:00,
2013-01-20 21:22:00,-7.5,-13.1,30.41,West,268,1.0,3.0,76,0.00,,,0.00,Wunderground v.1.15,2013-01-21 03:22:00,
2013-01-20 21:27:00,-7.6,-12.9,30.41,WSW,242,2.0,3.0,77,0.00,,,0.00,Wunderground v.1.15,2013-01-21 03:27:00,
2013-01-20 21:33:00,-7.8,-13.1,30.41,West,262,2.0,2.0,77,0.00,,,0.00,Wunderground v.1.15,2013-01-21 03:33:00,
2013-01-20 21:38:00,-7.9,-13.2,30.41,West,272,1.0,2.0,77,0.00,,,0.00,Wunderground v.1.15,2013-01-21 03:38:00,
2013-01-20 21:43:00,-8.1,-13.4,30.41,West,272,1.0,1.0,77,0.00,,,0.00,Wunderground v.1.15,2013-01-21 03:43:00,
2013-01-20 21:48:00,-8.4,-13.7,30.41,WSW,258,1.0,2.0,77,0.00,,,0.00,Wunderground v.1.15,2013-01-21 03:48:00,
2013-01-20 21:54:00,-8.4,-13.7,30.41,WSW,249,1.0,3.0,77,0.00,,,0.00,Wunderground v.1.15,2013-01-21 03:54:00,
2013-01-20 22:00:00,-8.6,-13.9,30.41,WSW,254,1.0,1.0,77,0.00,,,0.00,Wunderground v.1.15,2013-01-21 04:00:00,
2013-01-20 22:06:00,-8.8,-14.1,30.41,WSW,245,1.0,2.0,77,0.00,,,0.00,Wunderground v.1.15,2013-01-21 04:06:00,
2013-01-20 22:12:00,-9.1,-14.4,30.41,SSW,213,0.0,2.0,77,0.00,,,0.00,Wunderground v.1.15,2013-01-21 04:12:00,
2013-01-20 22:17:00,-9.3,-14.3,30.42,WSW,251,0.0,2.0,78,0.00,,,0.00,Wunderground v.1.15,2013-01-21 04:17:00,
2013-01-20 22:23:00,-9.5,-14.5,30.42,WSW,244,0.0,1.0,78,0.00,,,0.00,Wunderground v.1.15,2013-01-21 04:23:00,
2013-01-20 22:29:00,-9.6,-14.3,30.42,WSW,237,1.0,3.0,79,0.00,,,0.00,Wunderground v.1.15,2013-01-21 04:29:00,
2013-01-20 22:35:00,-9.7,-14.4,30.42,WSW,257,0.0,1.0,79,0.00,,,0.00,Wunderground v.1.15,2013-01-21 04:35:00,
2013-01-20 22:40:00,-9.9,-14.6,30.42,West,274,0.0,0.0,79,0.00,,,0.00,Wunderground v.1.15,2013-01-21 04:40:00,
2013-01-20 22:46:00,-9.9,-14.6,30.42,WSW,253,1.0,4.0,79,0.00,,,0.00,Wunderground v.1.15,2013-01-21 04:46:00,
2013-01-20 22:52:00,-10.0,-14.7,30.42,West,260,1.0,1.0,79,0.00,,,0.00,Wunderground v.1.15,2013-01-21 04:52:00,
2013-01-20 22:58:00,-10.2,-14.9,30.41,SW,222,0.0,1.0,79,0.00,,,0.00,Wunderground v.1.15,2013-01-21 04:58:00,
2013-01-20 23:01:00,-10.3,-15.0,30.41,WSW,256,0.0,1.0,79,0.00,,,0.00,Wunderground v.1.15,2013-01-21 05:01:00,
2013-01-20 23:03:00,-10.2,-14.9,30.42,WSW,237,0.0,1.0,79,0.00,,,0.00,Wunderground v.1.15,2013-01-21 05:03:00,
2013-01-20 23:05:00,-10.3,-15.0,30.41,West,265,1.0,2.0,79,0.00,,,0.00,Wunderground v.1.15,2013-01-21 05:05:00,
2013-01-20 23:06:00,-10.3,-15.0,30.42,WSW,251,1.0,2.0,79,0.00,,,0.00,Wunderground v.1.15,2013-01-21 05:06:00,
2013-01-20 23:11:00,-10.1,-14.8,30.41,WSW,237,1.0,4.0,79,0.00,,,0.00,Wunderground v.1.15,2013-01-21 05:11:00,
2013-01-20 23:17:00,-10.0,-15.0,30.42,WSW,253,3.0,7.0,78,0.00,,,0.00,Wunderground v.1.15,2013-01-21 05:17:00,
2013-01-20 23:23:00,-9.8,-15.0,30.42,West,259,3.0,4.0,77,0.00,,,0.00,Wunderground v.1.15,2013-01-21 05:23:00,
2013-01-20 23:29:00,-9.9,-15.4,30.42,WSW,249,2.0,4.0,76,0.00,,,0.00,Wunderground v.1.15,2013-01-21 05:29:00,
2013-01-20 23:34:00,-10.0,-15.8,30.42,West,265,3.0,7.0,75,0.00,,,0.00,Wunderground v.1.15,2013-01-21 05:34:00,
2013-01-20 23:40:00,-10.1,-16.4,30.42,West,277,3.0,3.0,73,0.00,,,0.00,Wunderground v.1.15,2013-01-21 05:40:00,
2013-01-20 23:46:00,-10.3,-16.8,30.42,WSW,251,2.0,4.0,72,0.00,,,0.00,Wunderground v.1.15,2013-01-21 05:46:00,
2013-01-20 23:51:00,-10.4,-16.9,30.42,NW,324,3.0,7.0,72,0.00,,,0.00,Wunderground v.1.15,2013-01-21 05:51:00,
2013-01-20 23:56:00,-10.4,-17.2,30.42,SW,230,3.0,7.0,71,0.00,,,0.00,Wunderground v.1.15,2013-01-21 05:56:00,